Terminal Aerodrome Forecast
Issued by NWS Twin Cities, MN

Home | Current Version | Previous Version | Graphics & Text | Print | Product List | Glossary Off
Versions: 1 2 3 4 5 6 7 8 9 10 11 12 13 14 15 16 17 18 19 20 21 22 23 24

000
FTUS43 KMPX 300729 AAA
TAFEAU
TAF AMD
KEAU 300729Z 3007/0106 00000KT 2SM BR SCT008
      TEMPO 3007/3010 1/2SM FG BKN008
     FM301000 00000KT 1/4SM FG VV001
      TEMPO 3012/3013 3SM BR OVC002
     FM301300 36007KT P6SM BKN007 OVC015
     FM301400 01007KT P6SM FEW035 BKN250=

USA.gov is the U.S. government's official web portal to all federal, state and local government web resources and services.